createdAt,value
2019-04-27T00:01:55.143Z,97311.88
2019-04-27T00:04:55.825Z,97307.95
2019-04-27T00:07:44.381Z,97307.88
2019-04-27T00:10:20.416Z,97307.88
2019-04-27T00:12:50.682Z,97307.75
2019-04-27T00:15:34.383Z,97311.22
2019-04-27T00:18:29.181Z,97305.25
2019-04-27T00:21:08.801Z,97305.25
2019-04-27T00:23:38.948Z,97296.88
2019-04-27T00:26:08.584Z,97300.80
2019-04-27T00:28:38.197Z,97300.19
2019-04-27T00:31:08.185Z,97300.19
2019-04-27T00:33:38.139Z,97290.28
2019-04-27T00:36:15.411Z,97282.34
2019-04-27T00:39:05.261Z,97283.97
2019-04-27T00:41:35.369Z,97284.09
2019-04-27T00:44:06.098Z,97284.09
2019-04-27T00:46:35.967Z,97278.63
2019-04-27T00:49:05.540Z,97275.95
2019-04-27T00:51:35.103Z,97278.72
2019-04-27T00:54:04.766Z,97268.63
2019-04-27T00:57:05.796Z,97268.63
2019-04-27T01:00:00.772Z,97270.70
2019-04-27T01:02:38.974Z,97270.70
2019-04-27T01:05:15.359Z,97268.27
2019-04-27T01:07:45.110Z,97260.27
2019-04-27T01:10:14.751Z,97261.92
2019-04-27T01:12:44.350Z,97261.92
2019-04-27T01:15:14.183Z,97258.44
2019-04-27T01:17:43.989Z,97254.42
2019-04-27T01:20:15.363Z,97254.42
2019-04-27T01:22:45.317Z,97250.06
2019-04-27T01:25:15.054Z,97253.94
2019-04-27T01:28:05.765Z,97245.20
2019-04-27T01:30:43.457Z,97245.20
2019-04-27T01:33:13.126Z,97244.23
2019-04-27T01:35:42.980Z,97238.81
2019-04-27T01:38:12.565Z,97238.81
2019-04-27T01:40:42.182Z,97231.61
2019-04-27T01:43:11.878Z,97231.61
2019-04-27T01:45:41.438Z,97235.86
2019-04-27T01:48:22.946Z,97226.87
2019-04-27T01:50:44.121Z,97232.13
2019-04-27T01:53:13.799Z,97232.13
2019-04-27T01:55:43.603Z,97226.22
2019-04-27T01:58:13.220Z,97225.62
2019-04-27T02:01:00.957Z,97225.62
2019-04-27T02:04:09.157Z,97222.42
2019-04-27T02:06:39.400Z,97214.45
2019-04-27T02:09:11.491Z,97218.94
2019-04-27T02:11:41.159Z,97218.79
2019-04-27T02:14:10.849Z,97218.79
2019-04-27T02:16:40.407Z,97215.00
2019-04-27T02:19:13.039Z,97209.63
2019-04-27T02:21:44.342Z,97209.63
2019-04-27T02:24:15.027Z,97209.15
2019-04-27T02:26:46.584Z,97202.69
2019-04-27T02:29:29.438Z,97202.69
2019-04-27T02:32:17.118Z,97208.33
2019-04-27T02:35:00.112Z,97194.26
2019-04-27T02:37:30.436Z,97193.73
2019-04-27T02:40:00.917Z,97193.73
2019-04-27T02:42:42.281Z,97184.06
2019-04-27T02:45:12.084Z,97184.44
2019-04-27T02:47:42.628Z,97184.44
2019-04-27T02:50:12.323Z,97184.88
2019-04-27T02:52:49.992Z,97182.98
2019-04-27T02:55:19.795Z,97183.50
2019-04-27T02:57:53.107Z,97188.68
2019-04-27T03:00:22.827Z,97185.80
2019-04-27T03:03:02.102Z,97179.38
2019-04-27T03:05:30.587Z,97173.43
2019-04-27T03:08:00.150Z,97170.52
2019-04-27T03:10:32.024Z,97170.36
2019-04-27T03:13:19.831Z,97165.42
2019-04-27T03:16:11.401Z,97165.42
2019-04-27T03:19:13.352Z,97163.13
2019-04-27T03:21:50.406Z,97161.91
2019-04-27T03:24:23.029Z,97161.91
2019-04-27T03:27:00.473Z,97159.88
2019-04-27T03:29:30.605Z,97153.45
2019-04-27T03:32:02.348Z,97155.88
2019-04-27T03:34:32.530Z,97153.45
2019-04-27T03:37:04.224Z,97153.45
2019-04-27T03:39:33.621Z,97153.66
2019-04-27T03:42:03.435Z,97139.87
2019-04-27T03:44:34.571Z,97141.69
2019-04-27T03:47:05.919Z,97142.05
2019-04-27T03:49:38.797Z,97136.87
2019-04-27T03:52:21.579Z,97139.47
2019-04-27T03:54:59.781Z,97139.47
2019-04-27T03:57:43.097Z,97133.80
2019-04-27T04:00:19.677Z,97136.88
2019-04-27T04:02:50.233Z,97136.88
2019-04-27T04:05:20.382Z,97115.67
2019-04-27T04:07:50.517Z,97115.67
2019-04-27T04:10:20.611Z,97115.16
2019-04-27T04:13:01.448Z,97113.34
2019-04-27T04:15:43.603Z,97113.34
2019-04-27T04:18:13.378Z,97112.83
2019-04-27T04:20:45.259Z,97112.83
2019-04-27T04:23:14.646Z,97102.05
2019-04-27T04:25:44.093Z,97107.38
2019-04-27T04:28:13.599Z,97105.55
2019-04-27T04:30:43.998Z,97105.55
2019-04-27T04:33:13.353Z,97089.42
2019-04-27T04:35:43.086Z,97090.41
2019-04-27T04:38:13.618Z,97083.25
2019-04-27T04:40:51.316Z,97078.27
2019-04-27T04:43:43.455Z,97078.27
2019-04-27T04:46:32.551Z,97088.30
2019-04-27T04:49:02.125Z,97088.30
2019-04-27T04:51:32.174Z,97092.58
2019-04-27T04:54:03.615Z,97094.36
2019-04-27T04:56:34.007Z,97085.34
2019-04-27T04:59:04.083Z,97091.77
2019-04-27T05:01:36.507Z,97088.67
2019-04-27T05:04:06.055Z,97088.67
2019-04-27T05:06:36.115Z,97097.90
2019-04-27T05:09:06.966Z,97096.64
2019-04-27T05:11:36.507Z,97096.89
2019-04-27T05:14:06.348Z,97091.41
2019-04-27T05:16:38.947Z,97102.34
2019-04-27T05:19:11.216Z,97102.34
2019-04-27T05:21:40.690Z,97096.05
2019-04-27T05:24:10.445Z,97103.81
2019-04-27T05:26:40.408Z,97101.98
2019-04-27T05:29:10.970Z,97104.05
2019-04-27T05:31:40.777Z,97105.08
2019-04-27T05:34:11.715Z,97105.08
2019-04-27T05:36:48.385Z,97108.47
2019-04-27T05:39:13.447Z,97106.34
2019-04-27T05:41:44.888Z,97097.88
2019-04-27T05:44:45.765Z,97097.88
2019-04-27T05:47:32.067Z,97095.02
2019-04-27T05:50:09.127Z,97095.02
2019-04-27T05:52:41.218Z,97099.78
2019-04-27T05:55:11.532Z,97095.87
2019-04-27T05:57:42.580Z,97100.63
2019-04-27T06:00:15.176Z,97094.34
2019-04-27T06:02:44.665Z,97094.34
2019-04-27T06:05:16.217Z,97090.69
2019-04-27T06:07:45.812Z,97085.37
2019-04-27T06:10:17.435Z,97079.73
2019-04-27T06:12:48.634Z,97079.73
2019-04-27T06:15:19.782Z,97077.61
2019-04-27T06:17:50.327Z,97082.23
2019-04-27T06:20:19.948Z,97082.23
2019-04-27T06:22:50.419Z,97075.14
2019-04-27T06:25:21.501Z,97070.02
2019-04-27T06:27:53.325Z,97070.02
2019-04-27T06:30:22.788Z,97060.95
2019-04-27T06:32:52.327Z,97065.08
2019-04-27T06:35:21.640Z,97065.08
2019-04-27T06:37:51.663Z,97073.46
2019-04-27T06:40:23.307Z,97069.11
2019-04-27T06:42:59.609Z,97064.23
2019-04-27T06:45:31.564Z,97073.53
2019-04-27T06:48:01.080Z,97061.27
2019-04-27T06:50:30.808Z,97061.78
2019-04-27T06:53:00.554Z,97056.78
2019-04-27T06:55:35.097Z,97056.78
2019-04-27T06:58:08.961Z,97062.91
2019-04-27T07:00:40.905Z,97063.10
2019-04-27T07:03:10.741Z,97063.75
2019-04-27T07:05:41.388Z,97059.94
2019-04-27T07:08:13.077Z,97061.61
2019-04-27T07:10:43.795Z,97058.87
2019-04-27T07:13:13.804Z,97060.89
2019-04-27T07:15:49.870Z,97063.38
2019-04-27T07:18:21.495Z,97065.59
2019-04-27T07:20:51.524Z,97059.52
2019-04-27T07:23:23.066Z,97059.52
2019-04-27T07:25:55.021Z,97064.41
2019-04-27T07:28:33.482Z,97064.41
2019-04-27T07:31:09.718Z,97055.71
2019-04-27T07:33:51.702Z,97055.71
2019-04-27T07:36:23.140Z,97057.70
2019-04-27T07:38:59.823Z,97052.84
2019-04-27T07:41:30.247Z,97052.84
2019-04-27T07:44:17.203Z,97047.48
2019-04-27T07:47:09.711Z,97047.48
2019-04-27T07:49:40.288Z,97044.97
2019-04-27T07:52:15.361Z,97044.97
2019-04-27T07:54:44.780Z,97046.77
2019-04-27T07:57:14.165Z,97037.00
2019-04-27T07:59:51.644Z,97050.05
2019-04-27T08:02:23.870Z,97040.16
2019-04-27T08:05:00.513Z,97041.31
2019-04-27T08:07:39.574Z,97037.36
2019-04-27T08:10:09.701Z,97040.02
2019-04-27T08:12:40.412Z,97040.02
2019-04-27T08:15:09.963Z,97029.47
2019-04-27T08:17:40.592Z,97029.47
2019-04-27T08:20:11.656Z,97032.03
2019-04-27T08:22:43.052Z,97024.50
2019-04-27T08:25:12.546Z,97024.50
2019-04-27T08:27:52.008Z,97024.59
2019-04-27T08:30:42.429Z,97017.80
2019-04-27T08:33:14.193Z,97024.72
2019-04-27T08:35:45.799Z,97024.72
2019-04-27T08:38:19.025Z,97025.12
2019-04-27T08:40:50.707Z,97024.15
2019-04-27T08:43:24.951Z,97027.79
2019-04-27T08:45:58.766Z,97018.03
2019-04-27T08:48:34.689Z,97018.03
2019-04-27T08:50:59.918Z,97014.77
2019-04-27T08:53:31.185Z,97014.77
2019-04-27T08:56:04.864Z,97019.16
2019-04-27T08:58:39.350Z,97017.05
2019-04-27T09:01:10.382Z,97017.05
2019-04-27T09:03:41.367Z,97013.56
2019-04-27T09:06:16.714Z,97005.05
2019-04-27T09:08:56.099Z,97006.38
2019-04-27T09:11:49.260Z,97000.53
2019-04-27T09:14:26.842Z,96999.20
2019-04-27T09:17:21.188Z,96999.20
2019-04-27T09:19:59.140Z,97000.53
2019-04-27T09:22:29.504Z,96992.27
2019-04-27T09:24:59.512Z,96992.27
2019-04-27T09:27:39.803Z,96990.50
2019-04-27T09:30:10.334Z,96985.81
2019-04-27T09:32:40.966Z,96985.81
2019-04-27T09:35:13.275Z,96991.15
2019-04-27T09:37:48.467Z,96986.66
2019-04-27T09:40:21.258Z,96982.39
2019-04-27T09:42:53.693Z,96982.39
2019-04-27T09:45:26.907Z,96979.52
2019-04-27T09:48:00.393Z,96979.52
2019-04-27T09:50:31.180Z,96974.97
2019-04-27T09:53:03.279Z,96974.97
2019-04-27T09:55:32.931Z,96971.50
2019-04-27T09:58:12.130Z,96971.50
2019-04-27T10:00:43.521Z,96975.06
2019-04-27T10:03:14.303Z,96965.20
2019-04-27T10:05:45.885Z,96959.23
2019-04-27T10:08:16.954Z,96959.45
2019-04-27T10:10:48.020Z,96950.91
2019-04-27T10:13:21.573Z,96950.91
2019-04-27T10:15:51.050Z,96949.64
2019-04-27T10:18:24.057Z,96947.41
2019-04-27T10:20:59.658Z,96950.30
2019-04-27T10:23:25.283Z,96945.15
2019-04-27T10:25:56.663Z,96937.88
2019-04-27T10:28:37.210Z,96945.15
2019-04-27T10:31:15.634Z,96945.15
2019-04-27T10:33:46.789Z,97006.41
2019-04-27T10:36:19.461Z,97006.41
2019-04-27T10:38:49.095Z,97013.20
2019-04-27T10:41:18.757Z,97013.20
2019-04-27T10:43:50.982Z,97000.44
2019-04-27T10:46:21.384Z,97000.44
2019-04-27T10:48:53.255Z,97008.13
2019-04-27T10:51:26.079Z,97007.36
2019-04-27T10:53:57.405Z,97012.90
2019-04-27T10:56:27.336Z,97012.90
2019-04-27T10:58:58.339Z,97014.59
2019-04-27T11:01:30.101Z,97018.16
2019-04-27T11:04:15.816Z,97018.16
2019-04-27T11:06:56.393Z,97013.31
2019-04-27T11:09:32.548Z,97013.31
2019-04-27T11:12:04.256Z,97014.73
2019-04-27T11:14:33.966Z,97021.55
2019-04-27T11:17:06.270Z,97021.55
2019-04-27T11:19:36.111Z,97030.97
2019-04-27T11:22:09.333Z,97031.81
2019-04-27T11:24:39.771Z,97026.41
2019-04-27T11:27:09.418Z,97026.41
2019-04-27T11:29:39.483Z,97032.14
2019-04-27T11:32:15.783Z,97029.50
2019-04-27T11:35:19.781Z,97026.37
2019-04-27T11:37:49.933Z,97029.97
2019-04-27T11:40:19.889Z,97027.83
2019-04-27T11:42:49.254Z,97027.83
2019-04-27T11:45:19.224Z,97038.39
2019-04-27T11:47:55.321Z,97039.24
2019-04-27T11:50:27.137Z,97039.24
2019-04-27T11:52:56.787Z,97038.30
2019-04-27T11:55:27.378Z,97038.30
2019-04-27T11:57:57.177Z,97045.23
2019-04-27T12:00:27.732Z,97047.42
2019-04-27T12:03:04.379Z,97052.22
2019-04-27T12:05:34.018Z,97058.11
2019-04-27T12:08:06.704Z,97062.25
2019-04-27T12:10:40.308Z,97073.51
2019-04-27T12:13:12.122Z,97073.51
2019-04-27T12:15:44.229Z,97067.67
2019-04-27T12:18:14.407Z,97063.06
2019-04-27T12:20:45.834Z,97061.13
2019-04-27T12:23:16.526Z,97060.02
2019-04-27T12:25:46.334Z,97060.02
2019-04-27T12:28:27.676Z,97069.82
2019-04-27T12:31:16.420Z,97068.22
2019-04-27T12:33:50.594Z,97068.22
2019-04-27T12:36:20.314Z,97075.91
2019-04-27T12:38:50.100Z,97066.37
2019-04-27T12:41:19.721Z,97066.37
2019-04-27T12:43:56.034Z,97050.98
2019-04-27T12:46:25.581Z,97048.55
2019-04-27T12:48:57.071Z,97042.80
2019-04-27T12:51:31.458Z,97042.80
2019-04-27T12:54:32.224Z,97049.06
2019-04-27T12:57:21.099Z,97048.41
2019-04-27T13:00:03.593Z,97058.83
2019-04-27T13:02:33.591Z,97047.79
2019-04-27T13:05:08.156Z,97040.49
2019-04-27T13:07:38.194Z,97026.25
2019-04-27T13:10:11.141Z,97026.33
2019-04-27T13:12:41.219Z,97026.33
2019-04-27T13:15:11.100Z,97026.46
2019-04-27T13:17:46.211Z,97019.69
2019-04-27T13:20:17.644Z,97029.56
2019-04-27T13:22:48.637Z,97029.56
2019-04-27T13:25:19.315Z,97029.59
2019-04-27T13:27:51.102Z,97029.66
2019-04-27T13:30:23.049Z,97029.66
2019-04-27T13:32:53.785Z,97029.44
2019-04-27T13:35:25.931Z,97022.75
2019-04-27T13:37:56.067Z,97033.39
2019-04-27T13:40:26.581Z,97026.92
2019-04-27T13:43:07.977Z,97028.64
2019-04-27T13:46:08.809Z,97028.64
2019-04-27T13:48:59.804Z,97019.36
2019-04-27T13:51:42.772Z,97022.80
2019-04-27T13:54:23.666Z,97006.27
2019-04-27T13:56:48.499Z,97001.02
2019-04-27T13:59:21.765Z,97004.22
2019-04-27T14:01:54.000Z,97005.13
2019-04-27T14:04:24.094Z,97010.69
2019-04-27T14:06:53.826Z,97006.28
2019-04-27T14:09:28.200Z,97009.41
2019-04-27T14:12:06.916Z,97004.86
2019-04-27T14:14:39.058Z,97004.86
2019-04-27T14:17:19.162Z,97005.04
2019-04-27T14:19:48.836Z,97007.52
2019-04-27T14:22:18.840Z,96998.41
2019-04-27T14:24:48.827Z,96993.06
2019-04-27T14:27:21.545Z,96982.56
2019-04-27T14:29:59.473Z,96982.56
2019-04-27T14:32:31.545Z,96984.81
2019-04-27T14:35:02.015Z,96985.43
2019-04-27T14:37:33.825Z,97003.33
2019-04-27T14:40:05.467Z,96995.69
2019-04-27T14:42:37.893Z,96995.82
2019-04-27T14:45:09.753Z,96995.82
2019-04-27T14:47:43.425Z,96996.88
2019-04-27T14:50:18.711Z,96996.66
2019-04-27T14:52:53.659Z,96999.48
2019-04-27T14:55:32.198Z,97001.89
2019-04-27T14:58:04.344Z,96993.22
2019-04-27T15:00:38.468Z,96995.38
2019-04-27T15:03:08.978Z,96995.38
2019-04-27T15:05:49.639Z,96988.19
2019-04-27T15:08:20.724Z,96982.30
2019-04-27T15:10:51.575Z,96985.91
2019-04-27T15:13:23.188Z,96980.84
2019-04-27T15:15:54.526Z,96978.50
2019-04-27T15:18:29.706Z,96980.55
2019-04-27T15:21:02.714Z,96980.55
2019-04-27T15:23:31.914Z,96972.12
2019-04-27T15:26:01.458Z,96982.22
2019-04-27T15:28:36.233Z,96982.22
2019-04-27T15:31:26.900Z,96981.17
2019-04-27T15:34:27.495Z,96979.80
2019-04-27T15:37:07.861Z,96979.80
2019-04-27T15:39:57.695Z,96972.30
2019-04-27T15:42:31.428Z,96972.30
2019-04-27T15:45:03.539Z,96972.23
2019-04-27T15:47:38.350Z,96969.94
2019-04-27T15:50:09.211Z,96969.94
2019-04-27T15:52:42.367Z,96977.05
2019-04-27T15:55:31.571Z,96989.41
2019-04-27T15:57:47.030Z,96991.28
2019-04-27T16:00:24.256Z,96991.28
2019-04-27T16:02:53.982Z,97018.91
2019-04-27T16:05:28.595Z,97025.22
2019-04-27T16:08:01.041Z,97025.22
2019-04-27T16:10:32.715Z,97042.78
2019-04-27T16:13:06.906Z,97048.92
2019-04-27T16:15:35.278Z,97048.92
2019-04-27T16:18:05.795Z,97034.38
2019-04-27T16:20:35.713Z,97044.20
2019-04-27T16:25:45.278Z,97034.79
2019-04-27T16:28:09.705Z,97042.78
2019-04-27T16:30:36.060Z,97044.35
2019-04-27T16:33:08.698Z,97053.10
2019-04-27T16:35:40.406Z,97053.10
2019-04-27T16:38:26.745Z,97058.82
2019-04-27T16:40:59.669Z,97057.63
2019-04-27T16:43:32.672Z,97057.59
2019-04-27T16:46:04.369Z,97063.91
2019-04-27T16:48:34.519Z,97070.66
2019-04-27T16:51:04.620Z,97070.66
2019-04-27T16:53:38.198Z,97077.59
2019-04-27T16:56:15.103Z,97087.12
2019-04-27T16:58:39.869Z,97092.41
2019-04-27T17:01:13.227Z,97101.69
2019-04-27T17:03:42.898Z,97101.69
2019-04-27T17:06:12.434Z,97098.47
2019-04-27T17:08:44.219Z,97116.24
2019-04-27T17:11:15.570Z,97110.30
2019-04-27T17:13:51.983Z,97110.05
2019-04-27T17:16:46.393Z,97129.06
2019-04-27T17:19:28.899Z,97123.68
2019-04-27T17:22:05.084Z,97132.16
2019-04-27T17:24:43.809Z,97133.38
2019-04-27T17:27:16.302Z,97133.38
2019-04-27T17:29:48.000Z,97139.69
2019-04-27T17:32:35.976Z,97134.41
2019-04-27T17:35:10.957Z,97134.41
2019-04-27T17:37:39.469Z,97148.95
2019-04-27T17:40:09.603Z,97148.95
2019-04-27T17:42:39.323Z,97142.94
2019-04-27T17:45:11.143Z,97142.94
2019-04-27T17:47:42.811Z,97157.31
2019-04-27T17:50:18.414Z,97157.83
2019-04-27T17:52:48.504Z,97157.83
2019-04-27T17:55:24.467Z,97155.19
2019-04-27T17:57:51.746Z,97159.43
2019-04-27T18:00:28.222Z,97159.43
2019-04-27T18:02:58.042Z,97167.02
2019-04-27T18:05:28.504Z,97167.02
2019-04-27T18:08:01.552Z,97162.37
2019-04-27T18:10:40.744Z,97171.23
2019-04-27T18:13:10.694Z,97171.23
2019-04-27T18:15:41.034Z,97179.91
2019-04-27T18:18:22.789Z,97184.03
2019-04-27T18:21:11.687Z,97189.63
2019-04-27T18:23:45.343Z,97189.39
2019-04-27T18:26:31.190Z,97189.39
2019-04-27T18:29:01.715Z,97193.10
2019-04-27T18:31:35.094Z,97190.77
2019-04-27T18:34:08.584Z,97197.91
2019-04-27T18:36:37.855Z,97198.47
2019-04-27T18:39:12.454Z,97202.53
2019-04-27T18:41:49.255Z,97198.85
2019-04-27T18:44:12.401Z,97198.85
2019-04-27T18:46:42.095Z,97209.76
2019-04-27T18:49:33.846Z,97218.02
2019-04-27T18:52:21.261Z,97218.02
2019-04-27T18:54:51.268Z,97215.57
2019-04-27T18:57:20.932Z,97226.75
2019-04-27T18:59:51.043Z,97240.81
2019-04-27T19:02:21.261Z,97259.92
2019-04-27T19:04:51.101Z,97259.92
2019-04-27T19:07:20.520Z,97266.03
2019-04-27T19:09:51.065Z,97286.80
2019-04-27T19:12:20.877Z,97290.02
2019-04-27T19:14:54.935Z,97302.55
2019-04-27T19:17:24.691Z,97301.14
2019-04-27T19:19:56.143Z,97308.26
2019-04-27T19:22:25.882Z,97308.26
2019-04-27T19:24:56.373Z,97312.27
2019-04-27T19:27:59.689Z,97310.94
2019-04-27T19:30:35.588Z,97310.94
2019-04-27T19:33:05.033Z,97307.30
2019-04-27T19:35:34.863Z,97305.86
2019-04-27T19:38:04.682Z,97305.86
2019-04-27T19:40:34.223Z,97304.41
2019-04-27T19:43:03.713Z,97301.86
2019-04-27T19:45:38.901Z,97304.17
2019-04-27T19:48:11.074Z,97304.41
2019-04-27T19:50:40.939Z,97304.41
2019-04-27T19:53:10.374Z,97303.69
2019-04-27T19:55:40.600Z,97307.44
2019-04-27T19:58:10.629Z,97311.66
2019-04-27T20:01:11.149Z,97310.69
2019-04-27T20:03:38.962Z,97313.74
2019-04-27T20:06:08.966Z,97313.74
2019-04-27T20:08:40.865Z,97309.36
2019-04-27T20:11:11.485Z,97318.48
2019-04-27T20:13:41.739Z,97320.03
2019-04-27T20:16:11.775Z,97318.09
2019-04-27T20:18:43.821Z,97318.09
2019-04-27T20:21:13.476Z,97320.38
2019-04-27T20:23:43.260Z,97325.00
2019-04-27T20:26:12.626Z,97324.52
2019-04-27T20:28:42.258Z,97329.27
2019-04-27T20:31:14.841Z,97329.27
2019-04-27T20:33:54.026Z,97326.34
2019-04-27T20:36:23.900Z,97323.92
2019-04-27T20:38:53.511Z,97323.92
2019-04-27T20:41:26.458Z,97328.75
2019-04-27T20:43:58.143Z,97326.64
2019-04-27T20:46:28.185Z,97329.21
2019-04-27T20:49:01.116Z,97328.78
2019-04-27T20:51:53.378Z,97324.87
2019-04-27T20:54:23.877Z,97324.87
2019-04-27T20:56:58.497Z,97324.52
2019-04-27T20:59:31.325Z,97326.56
2019-04-27T21:02:23.820Z,97332.54
2019-04-27T21:04:56.698Z,97331.68
2019-04-27T21:07:44.641Z,97331.68
2019-04-27T21:10:15.214Z,97338.12
2019-04-27T21:12:44.723Z,97338.12
2019-04-27T21:15:21.428Z,97334.59
2019-04-27T21:17:55.139Z,97334.59
2019-04-27T21:20:26.523Z,97339.46
2019-04-27T21:22:56.465Z,97338.11
2019-04-27T21:25:26.892Z,97340.93
2019-04-27T21:28:14.256Z,97338.12
2019-04-27T21:30:32.402Z,97338.12
2019-04-27T21:33:06.259Z,97342.59
2019-04-27T21:35:36.385Z,97341.63
2019-04-27T21:38:06.479Z,97355.45
2019-04-27T21:40:37.731Z,97357.41
2019-04-27T21:43:07.480Z,97352.92
2019-04-27T21:45:39.077Z,97352.92
2019-04-27T21:48:10.533Z,97357.52
2019-04-27T21:50:43.651Z,97362.61
2019-04-27T21:53:37.471Z,97356.19
2019-04-27T21:56:11.178Z,97358.00
2019-04-27T21:58:42.216Z,97364.81
2019-04-27T22:01:34.641Z,97369.15
2019-04-27T22:04:06.108Z,97371.23
2019-04-27T22:06:42.186Z,97371.23
2019-04-27T22:09:13.050Z,97374.77
2019-04-27T22:11:42.688Z,97376.34
2019-04-27T22:14:13.330Z,97375.72
2019-04-27T22:16:44.466Z,97374.98
2019-04-27T22:19:14.353Z,97378.97
2019-04-27T22:21:44.194Z,97385.32
2019-04-27T22:24:33.683Z,97385.32
2019-04-27T22:27:03.646Z,97387.85
2019-04-27T22:29:40.056Z,97387.27
2019-04-27T22:32:07.422Z,97383.73
2019-04-27T22:34:38.055Z,97385.80
2019-04-27T22:37:07.703Z,97386.88
2019-04-27T22:39:52.780Z,97388.33
2019-04-27T22:42:53.664Z,97388.41
2019-04-27T22:45:29.706Z,97394.52
2019-04-27T22:48:01.334Z,97394.52
2019-04-27T22:50:33.484Z,97401.65
2019-04-27T22:53:03.577Z,97396.77
2019-04-27T22:55:33.072Z,97396.77
2019-04-27T22:58:09.195Z,97402.03
2019-04-27T23:01:02.260Z,97408.31
2019-04-27T23:03:34.242Z,97408.31
2019-04-27T23:06:04.154Z,97409.26
2019-04-27T23:08:36.675Z,97409.14
2019-04-27T23:11:06.114Z,97415.19
2019-04-27T23:13:36.026Z,97410.84
2019-04-27T23:16:07.634Z,97417.27
2019-04-27T23:18:37.371Z,97418.42
2019-04-27T23:21:06.829Z,97418.42
2019-04-27T23:23:38.392Z,97415.64
2019-04-27T23:26:08.045Z,97415.64
2019-04-27T23:28:41.311Z,97415.67
2019-04-27T23:31:24.090Z,97415.53
2019-04-27T23:33:56.144Z,97409.23
2019-04-27T23:36:25.731Z,97411.78
2019-04-27T23:38:55.186Z,97405.72
2019-04-27T23:41:24.843Z,97405.72
2019-04-27T23:43:54.546Z,97406.82
2019-04-27T23:46:24.617Z,97406.12
2019-04-27T23:48:56.306Z,97414.53
2019-04-27T23:51:47.495Z,97404.91
2019-04-27T23:54:17.038Z,97411.94
2019-04-27T23:56:46.636Z,97411.94
2019-04-27T23:59:24.682Z,97416.54
